createdAt,value
2022-12-28T00:02:25.674Z,8.05
2022-12-28T00:05:27.789Z,8.68
2022-12-28T00:08:29.987Z,8.77
2022-12-28T00:11:32.014Z,7.82
2022-12-28T00:14:34.073Z,11.43
2022-12-28T00:17:36.053Z,3.83
2022-12-28T00:20:38.131Z,5.30
2022-12-28T00:23:40.139Z,7.72
2022-12-28T00:26:42.263Z,7.97
2022-12-28T00:29:44.365Z,4.28
2022-12-28T00:32:46.465Z,4.60
2022-12-28T00:35:56.979Z,6.53
2022-12-28T00:38:59.211Z,5.05
2022-12-28T00:42:01.342Z,3.25
2022-12-28T00:45:06.193Z,4.63
2022-12-28T00:48:08.210Z,10.93
2022-12-28T00:51:19.120Z,2.63
2022-12-28T00:54:21.165Z,10.23
2022-12-28T00:57:23.130Z,2.00
2022-12-28T01:00:28.225Z,2.05
2022-12-28T01:03:30.645Z,4.05
2022-12-28T01:06:33.030Z,2.95
2022-12-28T01:09:35.205Z,6.07
2022-12-28T01:12:38.406Z,8.25
2022-12-28T01:15:40.724Z,6.30
2022-12-28T01:18:45.564Z,3.03
2022-12-28T01:21:49.904Z,9.05
2022-12-28T01:24:52.389Z,5.10
2022-12-28T01:27:55.083Z,6.60
2022-12-28T01:30:58.214Z,7.68
2022-12-28T01:34:00.640Z,2.90
2022-12-28T01:37:02.760Z,4.10
2022-12-28T01:40:05.436Z,3.38
2022-12-28T01:43:14.101Z,3.47
2022-12-28T01:46:35.337Z,2.17
2022-12-28T01:49:45.152Z,5.78
2022-12-28T01:52:56.049Z,8.57
2022-12-28T01:55:58.184Z,8.20
2022-12-28T01:59:00.904Z,7.70
2022-12-28T02:02:04.446Z,4.97
2022-12-28T02:05:08.222Z,6.50
2022-12-28T02:08:17.139Z,4.75
2022-12-28T02:11:20.154Z,8.10
2022-12-28T02:14:23.204Z,12.15
2022-12-28T02:17:26.459Z,5.72
2022-12-28T02:20:53.580Z,6.90
2022-12-28T02:24:24.439Z,9.43
2022-12-28T02:27:37.159Z,6.28
2022-12-28T02:30:54.745Z,10.13
2022-12-28T02:34:15.560Z,3.58
2022-12-28T02:37:28.780Z,10.18
2022-12-28T02:40:42.340Z,2.80
2022-12-28T02:43:45.496Z,6.10
2022-12-28T02:47:06.256Z,6.78
2022-12-28T02:50:13.523Z,6.30
2022-12-28T02:53:30.617Z,4.93
2022-12-28T02:56:52.996Z,7.22
2022-12-28T03:00:11.267Z,5.70
2022-12-28T03:03:25.270Z,7.13
2022-12-28T03:07:22.175Z,9.38
2022-12-28T03:10:40.669Z,8.35
2022-12-28T03:13:48.660Z,11.80
2022-12-28T03:17:18.106Z,9.23
2022-12-28T03:20:42.994Z,16.70
2022-12-28T03:24:06.132Z,8.68
2022-12-28T03:27:33.555Z,6.00
2022-12-28T03:30:57.996Z,15.20
2022-12-28T03:34:08.181Z,12.82
2022-12-28T03:38:00.386Z,9.98
2022-12-28T03:41:09.169Z,5.68
2022-12-28T03:44:19.954Z,13.63
2022-12-28T03:47:26.164Z,12.02
2022-12-28T03:50:29.289Z,10.82
2022-12-28T03:53:42.111Z,10.20
2022-12-28T03:56:49.013Z,7.75
2022-12-28T03:59:52.151Z,6.40
2022-12-28T04:02:54.468Z,6.63
2022-12-28T04:05:57.069Z,5.25
2022-12-28T04:09:00.113Z,7.88
2022-12-28T04:12:05.895Z,10.75
2022-12-28T04:15:28.943Z,8.32
2022-12-28T04:18:32.746Z,7.07
2022-12-28T04:21:34.990Z,9.18
2022-12-28T04:24:38.619Z,7.47
2022-12-28T04:27:42.443Z,6.25
2022-12-28T04:31:00.911Z,5.15
2022-12-28T04:34:03.195Z,6.47
2022-12-28T04:37:09.048Z,8.02
2022-12-28T04:40:11.932Z,6.72
2022-12-28T04:43:14.054Z,12.02
2022-12-28T04:46:18.829Z,4.03
2022-12-28T04:49:20.901Z,9.85
2022-12-28T04:52:23.084Z,8.82
2022-12-28T04:55:32.645Z,6.35
2022-12-28T04:58:36.601Z,9.18
2022-12-28T05:01:38.833Z,7.75
2022-12-28T05:04:40.936Z,8.73
2022-12-28T05:07:42.985Z,13.35
2022-12-28T05:10:45.000Z,10.63
2022-12-28T05:13:49.080Z,9.82
2022-12-28T05:16:54.628Z,13.73
2022-12-28T05:19:56.660Z,12.68
2022-12-28T05:22:58.762Z,13.85
2022-12-28T05:26:01.793Z,13.55
2022-12-28T05:29:04.839Z,19.65
2022-12-28T05:32:06.923Z,20.98
2022-12-28T05:35:09.520Z,12.40
2022-12-28T05:38:11.947Z,12.00
2022-12-28T05:41:13.938Z,16.50
2022-12-28T05:44:16.010Z,24.45
2022-12-28T05:47:18.211Z,19.25
2022-12-28T05:50:20.583Z,18.73
2022-12-28T05:53:22.694Z,25.38
2022-12-28T05:56:30.403Z,11.35
2022-12-28T05:59:32.488Z,13.82
2022-12-28T06:02:34.756Z,10.15
2022-12-28T06:05:37.070Z,10.43
2022-12-28T06:08:40.117Z,13.18
2022-12-28T06:11:42.211Z,12.63
2022-12-28T06:14:44.256Z,12.90
2022-12-28T06:17:47.280Z,17.85
2022-12-28T06:20:55.290Z,17.38
2022-12-28T06:24:00.743Z,14.57
2022-12-28T06:27:02.757Z,16.33
2022-12-28T06:30:05.295Z,16.35
2022-12-28T06:33:07.304Z,16.48
2022-12-28T06:36:19.923Z,17.10
2022-12-28T06:39:23.058Z,11.30
2022-12-28T06:42:26.471Z,16.27
2022-12-28T06:45:28.590Z,16.08
2022-12-28T06:48:32.507Z,16.73
2022-12-28T06:51:38.899Z,17.58
2022-12-28T06:54:40.966Z,13.82
2022-12-28T06:57:43.026Z,19.42
2022-12-28T07:00:45.323Z,17.92
2022-12-28T07:03:49.239Z,23.10
2022-12-28T07:06:51.283Z,17.20
2022-12-28T07:09:53.517Z,19.02
2022-12-28T07:12:56.763Z,29.33
2022-12-28T07:16:02.703Z,19.40
2022-12-28T07:19:04.935Z,17.50
2022-12-28T07:22:07.032Z,23.08
2022-12-28T07:25:11.615Z,21.88
2022-12-28T07:28:16.536Z,33.15
2022-12-28T07:31:21.246Z,21.08
2022-12-28T07:34:23.722Z,24.63
2022-12-28T07:37:26.204Z,23.67
2022-12-28T07:40:28.753Z,25.10
2022-12-28T07:43:30.842Z,19.83
2022-12-28T07:46:35.257Z,31.35
2022-12-28T07:49:37.375Z,25.85
2022-12-28T07:52:39.460Z,21.73
2022-12-28T07:55:43.764Z,24.48
2022-12-28T07:58:53.726Z,27.98
2022-12-28T08:01:55.829Z,19.80
2022-12-28T08:04:58.024Z,27.70
2022-12-28T08:08:03.522Z,39.10
2022-12-28T08:11:17.681Z,27.65
2022-12-28T08:14:19.692Z,19.25
2022-12-28T08:17:21.851Z,27.15
2022-12-28T08:20:23.939Z,28.50
2022-12-28T08:23:25.896Z,33.03
2022-12-28T08:26:33.727Z,21.45
2022-12-28T08:29:35.795Z,31.67
2022-12-28T08:32:37.906Z,27.60
2022-12-28T08:35:39.941Z,29.58
2022-12-28T08:38:44.099Z,23.83
2022-12-28T08:41:46.157Z,24.08
2022-12-28T08:44:48.332Z,25.02
2022-12-28T08:47:51.717Z,22.85
2022-12-28T08:50:55.971Z,27.00
2022-12-28T08:53:58.676Z,23.13
2022-12-28T08:57:00.764Z,33.92
2022-12-28T09:00:06.149Z,33.65
2022-12-28T09:03:08.302Z,27.67
2022-12-28T09:06:13.079Z,26.23
2022-12-28T09:09:17.599Z,26.75
2022-12-28T09:12:19.829Z,22.00
2022-12-28T09:15:21.989Z,25.80
2022-12-28T09:18:24.024Z,15.18
2022-12-28T09:21:29.156Z,19.10
2022-12-28T09:24:31.256Z,12.70
2022-12-28T09:27:33.392Z,10.48
2022-12-28T09:30:35.550Z,16.45
2022-12-28T09:37:18.375Z,18.63
2022-12-28T09:40:21.070Z,13.00
2022-12-28T09:43:44.003Z,15.55
2022-12-28T09:46:55.348Z,12.00
2022-12-28T09:50:13.207Z,19.98
2022-12-28T09:53:23.014Z,28.60
2022-12-28T09:56:46.186Z,25.98
2022-12-28T09:59:49.355Z,17.30
2022-12-28T10:03:02.745Z,25.90
2022-12-28T10:06:11.116Z,15.80
2022-12-28T10:09:25.433Z,12.68
2022-12-28T10:12:29.969Z,7.93
2022-12-28T10:15:32.918Z,13.45
2022-12-28T10:18:39.659Z,16.25
2022-12-28T10:21:43.544Z,13.27
2022-12-28T10:24:47.413Z,15.63
2022-12-28T10:27:50.023Z,9.77
2022-12-28T10:31:11.993Z,16.42
2022-12-28T10:34:18.077Z,7.68
2022-12-28T10:37:20.587Z,11.52
2022-12-28T10:40:33.598Z,13.18
2022-12-28T10:43:39.927Z,9.05
2022-12-28T10:46:52.786Z,8.25
2022-12-28T10:50:26.541Z,9.10
2022-12-28T10:53:17.106Z,10.20
2022-12-28T10:56:30.224Z,12.63
2022-12-28T10:59:33.507Z,9.40
2022-12-28T11:02:35.840Z,15.43
2022-12-28T11:05:40.421Z,7.78
2022-12-28T11:08:45.217Z,12.00
2022-12-28T11:11:49.758Z,13.85
2022-12-28T11:14:52.877Z,13.32
2022-12-28T11:18:17.670Z,10.55
2022-12-28T11:21:24.330Z,9.15
2022-12-28T11:24:39.252Z,10.98
2022-12-28T11:27:41.802Z,12.48
2022-12-28T11:30:45.079Z,11.88
2022-12-28T11:33:54.453Z,11.82
2022-12-28T11:36:57.003Z,5.00
2022-12-28T11:39:59.642Z,6.40
2022-12-28T11:43:01.821Z,11.57
2022-12-28T11:46:25.982Z,8.40
2022-12-28T11:49:31.750Z,8.15
2022-12-28T11:52:46.049Z,6.72
2022-12-28T11:55:59.369Z,7.20
2022-12-28T11:59:09.419Z,8.65
2022-12-28T12:02:20.254Z,4.68
2022-12-28T12:05:40.034Z,2.17
2022-12-28T12:08:42.208Z,15.38
2022-12-28T12:11:44.547Z,5.15
2022-12-28T12:14:53.196Z,5.20
2022-12-28T12:21:15.520Z,4.35
2022-12-28T12:24:30.903Z,2.88
2022-12-28T12:27:45.565Z,3.20
2022-12-28T12:30:48.240Z,3.80
2022-12-28T12:33:58.419Z,8.80
2022-12-28T12:37:12.625Z,4.07
2022-12-28T12:40:14.720Z,3.15
2022-12-28T12:43:33.118Z,5.57
2022-12-28T12:47:29.560Z,5.55
2022-12-28T12:51:12.612Z,10.68
2022-12-28T12:54:40.909Z,3.53
2022-12-28T12:58:04.337Z,7.15
2022-12-28T13:01:33.818Z,3.85
2022-12-28T13:05:02.857Z,7.72
2022-12-28T13:08:20.082Z,5.60
2022-12-28T13:11:26.052Z,3.08
2022-12-28T13:14:29.217Z,5.50
2022-12-28T13:17:31.588Z,5.90
2022-12-28T13:20:33.924Z,6.80
2022-12-28T13:23:50.411Z,11.50
2022-12-28T13:27:12.426Z,9.75
2022-12-28T13:30:28.927Z,9.88
2022-12-28T13:34:25.279Z,78.65
2022-12-28T13:37:36.093Z,3.28
2022-12-28T13:40:57.644Z,3.22
2022-12-28T13:44:22.804Z,10.98
2022-12-28T13:47:44.755Z,13.35
2022-12-28T13:51:09.519Z,13.43
2022-12-28T13:54:20.422Z,12.32
2022-12-28T13:57:49.021Z,7.45
2022-12-28T14:01:04.275Z,13.45
2022-12-28T14:07:37.822Z,6.95
2022-12-28T14:10:43.792Z,12.18
2022-12-28T14:13:47.903Z,8.65
2022-12-28T14:17:01.358Z,12.43
2022-12-28T14:20:05.915Z,10.88
2022-12-28T14:23:31.646Z,12.82
2022-12-28T14:26:34.570Z,10.55
2022-12-28T14:29:41.884Z,13.65
2022-12-28T14:32:44.723Z,21.45
2022-12-28T14:36:01.606Z,16.13
2022-12-28T14:39:05.478Z,28.67
2022-12-28T14:49:33.955Z,24.17
2022-12-28T14:52:46.519Z,32.22
2022-12-28T14:56:03.666Z,23.17
2022-12-28T14:59:18.143Z,34.25
2022-12-28T15:00:25.456Z,20.75
2022-12-28T15:02:41.625Z,30.45
2022-12-28T15:05:54.717Z,27.90
2022-12-28T15:09:00.002Z,34.75
2022-12-28T15:12:17.905Z,38.05
2022-12-28T15:15:24.430Z,47.15
2022-12-28T15:18:29.192Z,43.17
2022-12-28T15:21:31.360Z,39.90
2022-12-28T15:24:37.653Z,31.48
2022-12-28T15:27:40.716Z,35.25
2022-12-28T15:30:45.936Z,38.05
2022-12-28T15:33:48.844Z,52.35
2022-12-28T15:36:53.319Z,43.20
2022-12-28T15:39:55.480Z,49.28
2022-12-28T15:42:58.690Z,50.08
2022-12-28T15:46:00.862Z,56.72
2022-12-28T15:49:04.309Z,50.78
2022-12-28T15:52:06.322Z,42.60
2022-12-28T15:55:08.760Z,44.08
2022-12-28T15:58:10.903Z,44.50
2022-12-28T16:01:13.116Z,48.80
2022-12-28T16:04:15.532Z,45.38
2022-12-28T16:07:19.377Z,57.97
2022-12-28T16:10:21.642Z,50.72
2022-12-28T16:13:23.854Z,43.95
2022-12-28T16:16:28.363Z,43.25
2022-12-28T16:19:31.773Z,44.25
2022-12-28T16:22:33.779Z,43.90
2022-12-28T16:25:35.909Z,39.03
2022-12-28T16:28:38.493Z,48.85
2022-12-28T16:31:41.479Z,47.45
2022-12-28T16:34:43.868Z,44.85
2022-12-28T16:37:46.048Z,48.50
2022-12-28T16:40:48.231Z,45.33
2022-12-28T16:43:52.748Z,43.83
2022-12-28T16:46:59.764Z,47.38
2022-12-28T16:50:02.164Z,51.30
2022-12-28T16:53:24.726Z,56.85
2022-12-28T16:56:27.376Z,58.53
2022-12-28T16:59:30.190Z,49.63
2022-12-28T17:02:32.418Z,45.33
2022-12-28T17:05:35.614Z,54.95
2022-12-28T17:08:38.350Z,59.13
2022-12-28T17:11:40.473Z,59.17
2022-12-28T17:14:42.572Z,60.85
2022-12-28T17:17:44.781Z,65.95
2022-12-28T17:20:46.826Z,74.10
2022-12-28T17:23:49.860Z,67.18
2022-12-28T17:26:52.846Z,66.05
2022-12-28T17:29:54.915Z,61.85
2022-12-28T17:32:57.773Z,57.90
2022-12-28T17:36:02.914Z,56.58
2022-12-28T17:39:05.877Z,78.78
2022-12-28T17:42:12.083Z,47.50
2022-12-28T17:45:15.487Z,55.40
2022-12-28T17:48:20.523Z,57.17
2022-12-28T17:51:24.395Z,59.33
2022-12-28T17:54:26.548Z,61.28
2022-12-28T17:57:30.791Z,54.97
2022-12-28T18:00:36.598Z,63.50
2022-12-28T18:03:38.949Z,66.03
2022-12-28T18:06:41.697Z,69.70
2022-12-28T18:09:43.896Z,52.65
2022-12-28T18:12:47.082Z,69.03
2022-12-28T18:15:52.220Z,68.60
2022-12-28T18:18:55.527Z,57.10
2022-12-28T18:21:57.807Z,65.40
2022-12-28T18:25:00.875Z,70.82
2022-12-28T18:28:03.060Z,68.47
2022-12-28T18:31:05.731Z,67.22
2022-12-28T18:34:07.967Z,62.88
2022-12-28T18:37:10.588Z,74.63
2022-12-28T18:40:12.699Z,76.53
2022-12-28T18:43:14.740Z,73.22
2022-12-28T18:46:20.325Z,73.97
2022-12-28T18:49:23.332Z,78.47
2022-12-28T18:52:25.612Z,87.85
2022-12-28T18:55:28.304Z,74.63
2022-12-28T18:58:33.447Z,79.95
2022-12-28T19:05:02.031Z,91.25
2022-12-28T19:08:09.424Z,58.63
2022-12-28T19:11:11.736Z,50.58
2022-12-28T19:14:15.838Z,50.75
2022-12-28T19:17:18.485Z,60.40
2022-12-28T19:20:20.518Z,48.33
2022-12-28T19:23:23.256Z,52.10
2022-12-28T19:26:25.895Z,69.70
2022-12-28T19:29:27.886Z,79.13
2022-12-28T19:32:31.085Z,64.65
2022-12-28T19:35:33.813Z,63.90
2022-12-28T19:38:36.991Z,66.25
2022-12-28T19:41:40.009Z,65.97
2022-12-28T19:44:43.945Z,56.00
2022-12-28T19:47:46.461Z,68.80
2022-12-28T19:50:48.540Z,60.97
2022-12-28T19:53:50.715Z,60.65
2022-12-28T19:56:53.233Z,55.20
2022-12-28T19:59:56.057Z,52.85
2022-12-28T20:02:58.422Z,58.88
2022-12-28T20:06:16.802Z,58.65
2022-12-28T20:09:18.958Z,55.45
2022-12-28T20:12:22.832Z,56.95
2022-12-28T20:15:25.061Z,55.45
2022-12-28T20:18:27.392Z,50.80
2022-12-28T20:21:29.746Z,50.90
2022-12-28T20:24:33.050Z,52.80
2022-12-28T20:27:35.254Z,59.75
2022-12-28T20:30:40.065Z,60.08
2022-12-28T20:33:44.031Z,63.47
2022-12-28T20:36:46.524Z,63.03
2022-12-28T20:39:49.685Z,57.33
2022-12-28T20:43:12.395Z,64.82
2022-12-28T20:46:14.617Z,65.55
2022-12-28T20:49:19.184Z,61.17
2022-12-28T20:52:21.221Z,57.20
2022-12-28T20:55:23.412Z,70.55
2022-12-28T20:58:25.508Z,56.83
2022-12-28T21:01:27.690Z,55.05
2022-12-28T21:04:30.802Z,54.20
2022-12-28T21:07:35.173Z,50.85
2022-12-28T21:10:37.420Z,52.22
2022-12-28T21:13:44.155Z,59.45
2022-12-28T21:16:47.851Z,52.03
2022-12-28T21:19:50.140Z,45.88
2022-12-28T21:22:52.401Z,42.70
2022-12-28T21:26:01.071Z,42.03
2022-12-28T21:29:03.184Z,38.38
2022-12-28T21:32:05.533Z,35.03
2022-12-28T21:35:08.206Z,37.45
2022-12-28T21:38:10.451Z,47.22
2022-12-28T21:41:41.788Z,33.72
2022-12-28T21:44:45.892Z,39.90
2022-12-28T21:47:47.975Z,35.78
2022-12-28T21:50:50.039Z,26.92
2022-12-28T21:53:52.533Z,32.50
2022-12-28T21:56:56.448Z,26.05
2022-12-28T22:00:01.028Z,22.13
2022-12-28T22:03:25.605Z,25.27
2022-12-28T22:06:35.554Z,17.75
2022-12-28T22:09:58.222Z,23.58
2022-12-28T22:13:00.415Z,23.42
2022-12-28T22:16:03.164Z,23.35
2022-12-28T22:19:05.724Z,27.50
2022-12-28T22:22:07.786Z,22.10
2022-12-28T22:25:11.319Z,22.00
2022-12-28T22:28:13.428Z,28.08
2022-12-28T22:31:16.561Z,21.27
2022-12-28T22:34:18.828Z,18.45
2022-12-28T22:37:20.982Z,24.17
2022-12-28T22:40:23.479Z,19.67
2022-12-28T22:43:25.801Z,26.10
2022-12-28T22:46:27.986Z,18.50
2022-12-28T22:49:30.548Z,16.95
2022-12-28T22:52:32.601Z,20.08
2022-12-28T22:55:34.624Z,23.45
2022-12-28T22:58:36.944Z,20.55
2022-12-28T23:01:39.757Z,21.70
2022-12-28T23:04:42.220Z,23.95
2022-12-28T23:07:44.387Z,25.02
2022-12-28T23:11:01.138Z,22.90
2022-12-28T23:14:31.873Z,25.63
2022-12-28T23:17:34.013Z,28.30
2022-12-28T23:20:59.840Z,30.38
2022-12-28T23:24:20.327Z,24.50
2022-12-28T23:27:22.486Z,25.02
2022-12-28T23:30:24.592Z,25.63
2022-12-28T23:33:26.664Z,26.25
2022-12-28T23:36:28.782Z,22.98
2022-12-28T23:39:30.963Z,28.85
2022-12-28T23:42:35.037Z,30.35
2022-12-28T23:45:38.702Z,25.35
2022-12-28T23:48:40.858Z,24.70
2022-12-28T23:51:47.322Z,24.70
2022-12-28T23:54:49.427Z,22.65
2022-12-28T23:57:51.465Z,30.00
